Time;durP1;ratioP1;P1;durP2;ratioP2;P2;SDS_P1;SDS_P2;PMS_P1;PMS_P2;Temp;Humidity;BMP_temperature;BMP_pressure;BME280_temperature;BME280_humidity;BME280_pressure;Samples;Min_cycle;Max_cycle;Signal;HPM_P1;HPM_P2
2024/01/11 00:02:19;;;;;;;54.37;18.63;;;;;;;;;;4922045;29;20416;-48
2024/01/11 00:04:45;;;;;;;52.87;18.47;;;;;;;;;;4907254;29;20284;-49
2024/01/11 00:07:11;;;;;;;59.87;18.90;;;;;;;;;;4905034;29;20234;-48
2024/01/11 00:09:45;;;;;;;57.80;17.83;;;;;;;;;;4908315;29;20189;-47
2024/01/11 00:12:11;;;;;;;52.93;17.83;;;;;;;;;;4923027;29;20257;-49
2024/01/11 00:14:37;;;;;;;53.80;17.63;;;;;;;;;;4919293;29;20424;-47
2024/01/11 00:17:03;;;;;;;54.03;17.17;;;;;;;;;;4898088;29;20879;-49
2024/01/11 00:19:29;;;;;;;57.20;17.60;;;;;;;;;;4921696;29;20206;-47
2024/01/11 00:21:55;;;;;;;60.43;17.73;;;;;;;;;;4906400;29;20497;-48
2024/01/11 00:24:21;;;;;;;57.07;18.63;;;;;;;;;;4913728;29;20424;-49
2024/01/11 00:26:47;;;;;;;52.27;17.73;;;;;;;;;;4913847;29;20227;-49
2024/01/11 00:29:13;;;;;;;56.67;18.07;;;;;;;;;;4921544;29;20195;-50
2024/01/11 00:31:39;;;;;;;54.13;17.60;;;;;;;;;;4900228;29;20232;-49
2024/01/11 00:34:05;;;;;;;50.13;17.27;;;;;;;;;;4910273;29;20687;-51
2024/01/11 00:36:32;;;;;;;56.53;19.23;;;;;;;;;;4902353;29;20627;-49
2024/01/11 00:38:58;;;;;;;63.00;18.13;;;;;;;;;;4910813;29;20191;-51
2024/01/11 00:41:25;;;;;;;57.23;18.73;;;;;;;;;;4909699;29;20789;-48
2024/01/11 00:43:51;;;;;;;60.40;18.97;;;;;;;;;;4909510;29;20215;-49
2024/01/11 00:46:17;;;;;;;55.20;18.57;;;;;;;;;;4918055;29;20612;-51
2024/01/11 00:48:43;;;;;;;65.77;19.17;;;;;;;;;;4909109;29;20530;-49
2024/01/11 00:51:09;;;;;;;53.30;18.70;;;;;;;;;;4903553;29;20192;-52
2024/01/11 00:53:35;;;;;;;53.53;18.57;;;;;;;;;;4907533;29;20244;-53
2024/01/11 00:56:01;;;;;;;52.83;18.80;;;;;;;;;;4928818;29;20242;-53
2024/01/11 00:58:27;;;;;;;57.07;17.90;;;;;;;;;;4901823;29;20444;-50
2024/01/11 01:00:54;;;;;;;54.43;17.90;;;;;;;;;;4909852;29;20428;-54
2024/01/11 01:03:20;;;;;;;51.20;17.47;;;;;;;;;;4905619;29;20495;-49
2024/01/11 01:05:46;;;;;;;51.03;18.17;;;;;;;;;;4919764;29;20486;-49
2024/01/11 01:08:13;;;;;;;52.07;17.30;;;;;;;;;;4916347;29;20510;-50
2024/01/11 01:10:39;;;;;;;55.23;17.40;;;;;;;;;;4910965;29;20217;-51
2024/01/11 01:13:06;;;;;;;45.30;15.77;;;;;;;;;;4905403;29;20424;-52
2024/01/11 01:15:32;;;;;;;48.70;17.57;;;;;;;;;;4905103;29;20514;-48
2024/01/11 01:17:58;;;;;;;52.80;17.23;;;;;;;;;;4913359;29;20427;-50
2024/01/11 01:20:24;;;;;;;50.03;17.27;;;;;;;;;;4913175;29;20188;-54
2024/01/11 01:22:50;;;;;;;52.67;17.63;;;;;;;;;;4898193;29;20433;-52
2024/01/11 01:25:16;;;;;;;54.67;17.67;;;;;;;;;;4904697;29;20195;-48
2024/01/11 01:27:42;;;;;;;48.53;16.63;;;;;;;;;;4899235;29;20425;-50
2024/01/11 01:30:08;;;;;;;48.23;17.17;;;;;;;;;;4911640;29;20192;-50
2024/01/11 01:32:34;;;;;;;50.03;16.57;;;;;;;;;;4903193;29;20570;-49
2024/01/11 01:35:00;;;;;;;57.37;17.00;;;;;;;;;;4924397;29;20415;-51
2024/01/11 01:37:26;;;;;;;47.30;15.77;;;;;;;;;;4916465;29;20479;-51
2024/01/11 01:39:52;;;;;;;48.67;15.53;;;;;;;;;;4916792;29;20184;-51
2024/01/11 01:42:18;;;;;;;46.20;15.27;;;;;;;;;;4927317;29;20183;-50
2024/01/11 01:44:44;;;;;;;42.13;15.73;;;;;;;;;;4914925;29;20184;-52
2024/01/11 01:47:11;;;;;;;42.60;15.10;;;;;;;;;;4922747;29;20243;-51
2024/01/11 01:49:38;;;;;;;42.53;14.27;;;;;;;;;;4902894;29;20223;-49
2024/01/11 01:52:05;;;;;;;52.60;17.13;;;;;;;;;;4912823;29;20424;-50
2024/01/11 01:54:32;;;;;;;48.37;16.60;;;;;;;;;;4909573;29;20932;-49
2024/01/11 01:56:59;;;;;;;48.20;15.83;;;;;;;;;;4908091;29;20476;-49
2024/01/11 01:59:26;;;;;;;37.67;14.83;;;;;;;;;;4912195;29;20433;-52
2024/01/11 02:01:52;;;;;;;52.37;16.60;;;;;;;;;;4905011;29;20421;-52
2024/01/11 02:04:18;;;;;;;51.17;16.23;;;;;;;;;;4915449;29;20420;-51
2024/01/11 02:06:45;;;;;;;50.90;15.33;;;;;;;;;;4909373;29;20469;-52
2024/01/11 02:09:11;;;;;;;47.67;15.77;;;;;;;;;;4904758;29;20436;-52
2024/01/11 02:11:38;;;;;;;49.37;15.37;;;;;;;;;;4902539;29;20510;-52
2024/01/11 02:14:04;;;;;;;46.23;14.83;;;;;;;;;;4906940;29;21003;-49
2024/01/11 02:16:30;;;;;;;48.63;16.63;;;;;;;;;;4901069;29;20487;-50
2024/01/11 02:18:56;;;;;;;44.40;16.90;;;;;;;;;;4923642;29;20416;-50
2024/01/11 02:21:23;;;;;;;60.50;15.20;;;;;;;;;;4904731;29;20683;-52
2024/01/11 02:23:59;;;;;;;48.47;15.03;;;;;;;;;;4911728;29;20417;-50
2024/01/11 02:26:25;;;;;;;43.63;13.77;;;;;;;;;;4904276;29;21043;-51
2024/01/11 02:28:51;;;;;;;51.03;15.67;;;;;;;;;;4903694;29;20457;-52
2024/01/11 02:31:16;;;;;;;49.30;15.77;;;;;;;;;;4904767;29;20197;-51
2024/01/11 02:33:42;;;;;;;47.87;14.60;;;;;;;;;;4910367;29;20660;-53
2024/01/11 02:36:09;;;;;;;43.30;13.73;;;;;;;;;;4906596;29;20697;-52
2024/01/11 02:38:35;;;;;;;49.17;16.60;;;;;;;;;;4907569;29;20273;-53
2024/01/11 02:41:01;;;;;;;50.77;16.57;;;;;;;;;;4906282;29;20559;-52
2024/01/11 02:43:27;;;;;;;45.70;14.47;;;;;;;;;;4915081;29;20427;-55
2024/01/11 02:45:58;;;;;;;48.53;14.90;;;;;;;;;;4914469;29;20452;-54
2024/01/11 02:48:27;;;;;;;46.90;13.63;;;;;;;;;;4896282;29;20271;-56
2024/01/11 02:50:53;;;;;;;43.80;15.07;;;;;;;;;;4903604;29;20495;-51
2024/01/11 02:53:20;;;;;;;47.73;14.03;;;;;;;;;;4914981;29;20467;-54
2024/01/11 02:55:46;;;;;;;46.10;13.80;;;;;;;;;;4914257;29;20303;-51
2024/01/11 02:58:12;;;;;;;49.13;13.90;;;;;;;;;;4906981;29;20508;-51
2024/01/11 03:00:37;;;;;;;47.33;14.70;;;;;;;;;;4909550;29;20196;-51
2024/01/11 03:03:04;;;;;;;36.57;13.60;;;;;;;;;;4911299;29;20497;-52
2024/01/11 03:05:30;;;;;;;38.27;13.33;;;;;;;;;;4895081;29;20224;-51
2024/01/11 03:07:56;;;;;;;40.67;14.13;;;;;;;;;;4904134;29;20431;-49
2024/01/11 03:10:22;;;;;;;51.27;14.10;;;;;;;;;;4914660;29;20188;-48
2024/01/11 03:12:49;;;;;;;42.97;13.43;;;;;;;;;;4900145;29;20203;-50
2024/01/11 03:15:15;;;;;;;43.07;14.37;;;;;;;;;;4902906;29;20452;-50
2024/01/11 03:17:41;;;;;;;39.07;13.53;;;;;;;;;;4903559;29;20444;-49
2024/01/11 03:20:07;;;;;;;40.60;12.93;;;;;;;;;;4911224;29;20848;-49
2024/01/11 03:22:33;;;;;;;41.27;13.43;;;;;;;;;;4903352;29;20187;-48
2024/01/11 03:24:59;;;;;;;36.87;13.27;;;;;;;;;;4903041;29;20531;-49
2024/01/11 03:27:25;;;;;;;36.93;12.60;;;;;;;;;;4906532;29;20531;-49
2024/01/11 03:29:51;;;;;;;44.47;13.03;;;;;;;;;;4914304;29;20196;-49
2024/01/11 03:32:17;;;;;;;42.43;13.53;;;;;;;;;;4903693;29;20503;-51
2024/01/11 03:34:43;;;;;;;33.73;12.40;;;;;;;;;;4908652;29;20507;-49
2024/01/11 03:37:09;;;;;;;45.23;13.90;;;;;;;;;;4904470;29;20479;-49
2024/01/11 03:39:35;;;;;;;44.07;14.10;;;;;;;;;;4895308;29;20185;-49
2024/01/11 03:42:03;;;;;;;42.37;13.80;;;;;;;;;;4911283;29;20192;-48
2024/01/11 03:44:29;;;;;;;41.33;12.70;;;;;;;;;;4913699;29;20251;-49
2024/01/11 03:46:55;;;;;;;34.70;12.40;;;;;;;;;;4906290;29;20452;-49
2024/01/11 03:49:21;;;;;;;43.70;14.20;;;;;;;;;;4902911;29;20203;-49
2024/01/11 03:51:47;;;;;;;36.97;13.07;;;;;;;;;;4901732;29;20195;-49
2024/01/11 03:54:13;;;;;;;36.27;11.80;;;;;;;;;;4911471;29;20652;-50
2024/01/11 03:56:39;;;;;;;35.50;12.07;;;;;;;;;;4907529;29;20219;-49
2024/01/11 03:59:06;;;;;;;37.13;11.97;;;;;;;;;;4912642;29;20215;-53
2024/01/11 04:01:32;;;;;;;42.27;11.80;;;;;;;;;;4907358;29;20499;-48
2024/01/11 04:03:58;;;;;;;35.93;12.03;;;;;;;;;;4904704;29;20888;-49
2024/01/11 04:06:24;;;;;;;39.90;12.00;;;;;;;;;;4912971;29;20495;-49
2024/01/11 04:08:50;;;;;;;38.57;12.53;;;;;;;;;;4906073;29;20199;-51
2024/01/11 04:11:17;;;;;;;39.17;12.47;;;;;;;;;;4897949;29;20429;-49
2024/01/11 04:13:43;;;;;;;32.80;12.17;;;;;;;;;;4913917;29;20424;-50
2024/01/11 04:16:09;;;;;;;38.57;11.97;;;;;;;;;;4904839;29;20471;-51
2024/01/11 04:18:35;;;;;;;40.57;11.97;;;;;;;;;;4908859;29;20432;-49
2024/01/11 04:21:01;;;;;;;40.93;12.40;;;;;;;;;;4903003;29;20263;-48
2024/01/11 04:23:27;;;;;;;41.37;12.13;;;;;;;;;;4909724;29;20421;-51
2024/01/11 04:25:53;;;;;;;35.53;12.03;;;;;;;;;;4909080;29;20763;-49
2024/01/11 04:28:19;;;;;;;38.50;11.47;;;;;;;;;;4904228;29;20432;-51
2024/01/11 04:30:45;;;;;;;36.77;12.00;;;;;;;;;;4913440;29;20431;-55
2024/01/11 04:33:11;;;;;;;31.00;11.37;;;;;;;;;;4913279;29;20247;-53
2024/01/11 04:35:37;;;;;;;40.40;11.93;;;;;;;;;;4907796;29;20748;-52
2024/01/11 04:38:03;;;;;;;31.90;12.00;;;;;;;;;;4894476;29;20276;-53
2024/01/11 04:40:29;;;;;;;30.03;11.57;;;;;;;;;;4906518;29;20424;-54
2024/01/11 04:42:55;;;;;;;33.23;11.23;;;;;;;;;;4905543;29;20438;-53
2024/01/11 04:45:21;;;;;;;33.03;10.47;;;;;;;;;;4904668;29;20275;-50
2024/01/11 04:47:47;;;;;;;36.27;11.80;;;;;;;;;;4906796;29;20204;-50
2024/01/11 04:50:13;;;;;;;35.27;11.67;;;;;;;;;;4902067;29;20421;-50
2024/01/11 04:52:39;;;;;;;29.30;11.03;;;;;;;;;;4902211;29;20203;-52
2024/01/11 04:55:05;;;;;;;37.47;12.30;;;;;;;;;;4902347;29;20875;-53
2024/01/11 04:57:31;;;;;;;33.77;10.77;;;;;;;;;;4905688;29;20218;-51
2024/01/11 04:59:57;;;;;;;39.43;11.07;;;;;;;;;;4905515;29;20512;-51
2024/01/11 05:02:23;;;;;;;33.87;11.00;;;;;;;;;;4905561;29;20192;-52
2024/01/11 05:04:49;;;;;;;36.00;10.77;;;;;;;;;;4913709;29;20446;-50
2024/01/11 05:07:15;;;;;;;28.60;10.60;;;;;;;;;;4908566;29;20314;-51
2024/01/11 05:09:41;;;;;;;31.70;11.17;;;;;;;;;;4916795;29;20648;-50
2024/01/11 05:12:07;;;;;;;31.43;10.50;;;;;;;;;;4901065;29;20486;-48
2024/01/11 05:14:33;;;;;;;35.97;10.07;;;;;;;;;;4916247;29;20614;-48
2024/01/11 05:17:00;;;;;;;36.73;11.00;;;;;;;;;;4903068;29;20507;-49
2024/01/11 05:19:26;;;;;;;33.57;11.07;;;;;;;;;;4905159;29;20185;-49
2024/01/11 05:21:52;;;;;;;46.83;12.40;;;;;;;;;;4912647;29;20447;-52
2024/01/11 05:24:18;;;;;;;31.43;10.07;;;;;;;;;;4916395;29;20211;-48
2024/01/11 05:26:44;;;;;;;28.07;10.60;;;;;;;;;;4908332;29;20222;-51
2024/01/11 05:29:10;;;;;;;42.37;11.93;;;;;;;;;;4914968;29;20745;-51
2024/01/11 05:31:36;;;;;;;37.83;11.57;;;;;;;;;;4897087;29;20216;-50
2024/01/11 05:34:03;;;;;;;36.87;10.90;;;;;;;;;;4913605;29;20196;-50
2024/01/11 05:36:28;;;;;;;32.37;10.97;;;;;;;;;;4907643;29;20987;-49
2024/01/11 05:38:54;;;;;;;36.77;11.17;;;;;;;;;;4908498;29;20430;-48
2024/01/11 05:41:20;;;;;;;32.07;10.50;;;;;;;;;;4908588;29;20202;-51
2024/01/11 05:43:46;;;;;;;27.50;9.93;;;;;;;;;;4916268;29;20424;-52
2024/01/11 05:46:12;;;;;;;37.93;11.70;;;;;;;;;;4907575;29;20223;-49
2024/01/11 05:48:38;;;;;;;40.43;11.67;;;;;;;;;;4903128;29;20432;-48
2024/01/11 05:51:04;;;;;;;42.43;11.57;;;;;;;;;;4904804;29;20437;-49
2024/01/11 05:53:34;;;;;;;31.87;11.10;;;;;;;;;;4904990;29;20204;-51
2024/01/11 05:56:00;;;;;;;35.27;10.60;;;;;;;;;;4904157;29;20231;-51
2024/01/11 05:58:26;;;;;;;27.93;10.07;;;;;;;;;;4901181;29;20426;-51
2024/01/11 06:00:52;;;;;;;37.10;10.73;;;;;;;;;;4916079;29;20557;-54
2024/01/11 06:03:18;;;;;;;37.20;10.97;;;;;;;;;;4913173;29;20646;-52
2024/01/11 06:05:44;;;;;;;30.40;11.30;;;;;;;;;;4904006;29;20319;-50
2024/01/11 06:08:10;;;;;;;31.50;10.63;;;;;;;;;;4906514;29;20252;-49
2024/01/11 06:10:37;;;;;;;35.37;11.10;;;;;;;;;;4909702;29;20192;-47
2024/01/11 06:13:03;;;;;;;35.50;10.63;;;;;;;;;;4905359;29;20204;-50
2024/01/11 06:15:29;;;;;;;41.17;11.90;;;;;;;;;;4915026;29;20476;-51
2024/01/11 06:17:55;;;;;;;32.57;11.33;;;;;;;;;;4900471;29;20856;-48
2024/01/11 06:20:21;;;;;;;36.07;11.13;;;;;;;;;;4907361;29;20475;-48
2024/01/11 06:22:47;;;;;;;30.33;9.90;;;;;;;;;;4909307;29;20815;-50
2024/01/11 06:25:13;;;;;;;37.50;11.53;;;;;;;;;;4903734;29;20567;-53
2024/01/11 06:27:39;;;;;;;35.27;11.40;;;;;;;;;;4904585;29;20224;-54
2024/01/11 06:30:06;;;;;;;33.13;11.17;;;;;;;;;;4903925;29;20928;-51
2024/01/11 06:32:32;;;;;;;31.20;11.43;;;;;;;;;;4907774;29;20199;-51
2024/01/11 06:34:58;;;;;;;42.33;11.90;;;;;;;;;;4914627;29;20432;-53
2024/01/11 06:37:24;;;;;;;33.80;10.47;;;;;;;;;;4905539;29;20275;-51
2024/01/11 06:39:50;;;;;;;31.40;10.80;;;;;;;;;;4911050;29;20298;-51
2024/01/11 06:42:16;;;;;;;32.23;9.50;;;;;;;;;;4898246;29;20607;-49
2024/01/11 06:44:42;;;;;;;40.27;10.30;;;;;;;;;;4914569;29;20520;-52
2024/01/11 06:47:08;;;;;;;35.87;10.07;;;;;;;;;;4906341;29;20696;-51
2024/01/11 06:49:34;;;;;;;37.60;10.30;;;;;;;;;;4908389;29;20199;-50
2024/01/11 06:52:00;;;;;;;31.40;10.57;;;;;;;;;;4915024;29;20974;-51
2024/01/11 06:54:26;;;;;;;31.87;10.60;;;;;;;;;;4906661;29;20424;-52
2024/01/11 06:56:52;;;;;;;43.93;12.67;;;;;;;;;;4914853;29;20220;-53
2024/01/11 06:59:18;;;;;;;49.17;11.83;;;;;;;;;;4896546;29;20559;-49
2024/01/11 07:01:44;;;;;;;42.20;13.10;;;;;;;;;;4909956;29;20427;-51
2024/01/11 07:04:10;;;;;;;44.27;13.80;;;;;;;;;;4905624;29;20903;-50
2024/01/11 07:06:36;;;;;;;44.03;14.20;;;;;;;;;;4903501;29;20561;-50
2024/01/11 07:09:02;;;;;;;37.60;12.13;;;;;;;;;;4904289;29;20599;-51
2024/01/11 07:11:28;;;;;;;41.83;13.10;;;;;;;;;;4914761;29;20486;-49
2024/01/11 07:13:55;;;;;;;39.57;12.40;;;;;;;;;;4899620;29;20917;-52
2024/01/11 07:16:21;;;;;;;36.30;12.03;;;;;;;;;;4903040;29;20339;-49
2024/01/11 07:18:47;;;;;;;34.93;12.27;;;;;;;;;;4909684;29;20427;-53
2024/01/11 07:21:13;;;;;;;35.10;11.13;;;;;;;;;;4906619;29;20196;-48
2024/01/11 07:23:39;;;;;;;34.97;11.80;;;;;;;;;;4914520;29;20418;-51
2024/01/11 07:26:05;;;;;;;39.40;12.70;;;;;;;;;;4905612;29;21031;-48
2024/01/11 07:28:31;;;;;;;42.27;11.93;;;;;;;;;;4906147;29;20560;-50
2024/01/11 07:30:57;;;;;;;39.23;13.27;;;;;;;;;;4906783;29;20248;-50
2024/01/11 07:33:23;;;;;;;54.57;16.60;;;;;;;;;;4905753;29;20203;-50
2024/01/11 07:35:49;;;;;;;41.53;15.87;;;;;;;;;;4904720;29;20230;-49
2024/01/11 07:38:15;;;;;;;41.00;14.23;;;;;;;;;;4903245;29;20192;-49
2024/01/11 07:40:41;;;;;;;33.53;11.83;;;;;;;;;;4907120;29;20456;-49
2024/01/11 07:43:08;;;;;;;35.73;11.77;;;;;;;;;;4897270;29;20425;-50
2024/01/11 07:45:34;;;;;;;36.80;11.30;;;;;;;;;;4900419;29;20516;-49
2024/01/11 07:48:00;;;;;;;42.47;12.43;;;;;;;;;;4901792;29;20983;-52
2024/01/11 07:50:26;;;;;;;39.37;12.43;;;;;;;;;;4897748;29;20184;-50
2024/01/11 07:52:52;;;;;;;36.70;11.73;;;;;;;;;;4905239;29;20262;-54
2024/01/11 07:55:23;;;;;;;34.63;12.47;;;;;;;;;;4904535;29;20773;-53
2024/01/11 07:57:49;;;;;;;43.43;11.70;;;;;;;;;;4905168;29;20645;-50
2024/01/11 08:00:16;;;;;;;38.20;12.03;;;;;;;;;;4912551;29;20415;-49
2024/01/11 08:02:42;;;;;;;29.50;11.80;;;;;;;;;;4912870;29;20415;-49
2024/01/11 08:05:08;;;;;;;42.43;13.03;;;;;;;;;;4910640;29;20415;-49
2024/01/11 08:07:34;;;;;;;34.53;11.73;;;;;;;;;;4898394;29;20690;-47
2024/01/11 08:10:00;;;;;;;44.20;12.10;;;;;;;;;;4912611;29;20416;-55
2024/01/11 08:12:26;;;;;;;39.87;15.67;;;;;;;;;;4904857;29;20259;-48
2024/01/11 08:14:52;;;;;;;36.67;13.20;;;;;;;;;;4904263;29;20184;-49
2024/01/11 08:17:18;;;;;;;34.83;11.10;;;;;;;;;;4912439;29;20475;-49
2024/01/11 08:19:44;;;;;;;35.37;12.60;;;;;;;;;;4906667;29;20216;-51
2024/01/11 08:22:11;;;;;;;41.30;12.60;;;;;;;;;;4900304;29;20248;-50
2024/01/11 08:24:37;;;;;;;32.43;11.73;;;;;;;;;;4893148;29;20240;-50
2024/01/11 08:27:04;;;;;;;35.13;11.83;;;;;;;;;;4901680;29;20455;-51
2024/01/11 08:29:30;;;;;;;42.20;12.90;;;;;;;;;;4912665;29;20424;-49
2024/01/11 08:31:56;;;;;;;36.60;13.40;;;;;;;;;;4904534;29;20912;-50
2024/01/11 08:34:22;;;;;;;33.53;11.13;;;;;;;;;;4904401;29;20194;-50
2024/01/11 08:36:48;;;;;;;37.43;12.17;;;;;;;;;;4903765;29;20490;-48
2024/01/11 08:39:14;;;;;;;31.30;10.90;;;;;;;;;;4912888;29;20734;-48
2024/01/11 08:41:41;;;;;;;44.73;11.93;;;;;;;;;;4911306;29;20668;-48
2024/01/11 08:44:07;;;;;;;30.07;10.90;;;;;;;;;;4905138;29;20421;-52
2024/01/11 08:46:34;;;;;;;33.40;11.63;;;;;;;;;;4901543;29;20944;-51
2024/01/11 08:49:03;;;;;;;40.93;13.00;;;;;;;;;;4910382;29;20212;-50
2024/01/11 08:51:29;;;;;;;37.07;11.90;;;;;;;;;;4899981;29;20472;-49
2024/01/11 08:53:55;;;;;;;35.93;11.87;;;;;;;;;;4906993;29;20975;-49
2024/01/11 08:56:21;;;;;;;45.40;13.87;;;;;;;;;;4904116;29;20522;-50
2024/01/11 08:58:48;;;;;;;47.03;15.97;;;;;;;;;;4904939;29;20452;-49
2024/01/11 09:01:14;;;;;;;44.37;14.07;;;;;;;;;;4915307;29;20942;-52
2024/01/11 09:03:40;;;;;;;42.20;13.87;;;;;;;;;;4918524;29;20454;-50
2024/01/11 09:06:06;;;;;;;50.23;15.23;;;;;;;;;;4916637;29;20463;-50
2024/01/11 09:08:32;;;;;;;46.27;14.97;;;;;;;;;;4915420;29;20223;-52
2024/01/11 09:10:59;;;;;;;46.27;13.53;;;;;;;;;;4916827;29;20442;-51
2024/01/11 09:13:28;;;;;;;47.33;15.20;;;;;;;;;;4919918;29;21269;-52
2024/01/11 09:15:54;;;;;;;43.53;14.40;;;;;;;;;;4921797;29;20897;-53
2024/01/11 09:18:20;;;;;;;35.13;13.33;;;;;;;;;;4919637;29;20431;-49
2024/01/11 09:20:47;;;;;;;41.63;14.60;;;;;;;;;;4921290;29;20880;-51
2024/01/11 09:23:13;;;;;;;42.10;14.23;;;;;;;;;;4898446;29;20444;-51
2024/01/11 09:25:39;;;;;;;54.30;16.73;;;;;;;;;;4903775;29;20971;-51
2024/01/11 09:28:05;;;;;;;45.67;14.80;;;;;;;;;;4905535;29;20438;-54
2024/01/11 09:30:31;;;;;;;44.57;15.10;;;;;;;;;;4915503;29;20550;-51
2024/01/11 09:32:57;;;;;;;50.53;16.63;;;;;;;;;;4908293;29;20416;-51
2024/01/11 09:35:23;;;;;;;45.87;16.17;;;;;;;;;;4895726;29;20417;-54
2024/01/11 09:37:50;;;;;;;48.10;16.57;;;;;;;;;;4902912;29;20239;-52
2024/01/11 09:40:16;;;;;;;45.67;18.67;;;;;;;;;;4905809;29;20786;-52
2024/01/11 09:42:43;;;;;;;44.10;17.10;;;;;;;;;;4905354;29;20196;-54
2024/01/11 09:45:16;;;;;;;49.67;18.17;;;;;;;;;;4911722;29;20210;-55
2024/01/11 09:47:45;;;;;;;53.67;22.53;;;;;;;;;;4909859;29;20196;-50
2024/01/11 09:50:17;;;;;;;41.47;19.00;;;;;;;;;;4906756;29;20198;-53
2024/01/11 09:52:46;;;;;;;50.10;18.77;;;;;;;;;;4915340;29;20243;-51
2024/01/11 09:55:13;;;;;;;35.13;16.70;;;;;;;;;;4905354;29;20204;-54
2024/01/11 09:57:44;;;;;;;40.23;15.30;;;0.10;99.90;;;;;;4901518;29;20216;-51
2024/01/11 10:00:12;;;;;;;39.87;16.77;;;5.80;99.90;;;;;;4906291;29;20204;-52
2024/01/11 10:02:39;;;;;;;45.90;17.13;;;5.50;99.90;;;;;;4904141;29;20189;-53
2024/01/11 10:05:05;;;;;;;43.57;15.80;;;5.00;99.90;;;;;;4895892;29;20192;-53
2024/01/11 10:07:32;;;;;;;40.70;17.17;;;4.70;99.90;;;;;;4914424;29;20204;-53
2024/01/11 10:09:58;;;;;;;37.97;15.20;;;4.40;99.90;;;;;;4907083;29;20287;-50
2024/01/11 10:12:25;;;;;;;32.97;13.77;;;4.50;99.90;;;;;;4914868;29;20255;-51
2024/01/11 10:14:51;;;;;;;41.07;14.10;;;4.40;99.90;;;;;;4899252;29;20218;-52
2024/01/11 10:17:17;;;;;;;32.37;13.53;;;3.80;99.90;;;;;;4905891;29;20235;-51
2024/01/11 10:19:43;;;;;;;38.57;13.87;;;3.00;99.90;;;;;;4901451;29;20184;-49
2024/01/11 10:22:12;;;;;;;35.00;14.57;;;2.50;99.90;;;;;;4911399;29;20267;-52
2024/01/11 10:24:39;;;;;;;34.07;13.00;;;1.80;99.90;;;;;;4900827;29;20658;-55
2024/01/11 10:27:09;;;;;;;33.87;14.10;;;1.60;99.90;;;;;;4906878;29;20310;-50
2024/01/11 10:29:36;;;;;;;33.87;13.37;;;1.80;99.90;;;;;;4915100;29;20182;-51
2024/01/11 10:32:03;;;;;;;32.03;12.73;;;1.60;99.90;;;;;;4906862;29;20568;-50
2024/01/11 10:34:29;;;;;;;29.33;12.57;;;1.20;99.90;;;;;;4913961;29;20183;-50
2024/01/11 10:36:56;;;;;;;41.80;13.60;;;1.10;99.90;;;;;;4907046;29;20302;-51
2024/01/11 10:39:25;;;;;;;31.97;12.60;;;0.90;99.90;;;;;;4906556;29;20187;-51
2024/01/11 10:41:56;;;;;;;36.67;12.07;;;0.80;99.90;;;;;;4914630;29;20590;-51
2024/01/11 10:44:22;;;;;;;31.47;13.07;;;1.00;99.90;;;;;;4906751;29;20219;-55
2024/01/11 10:46:56;;;;;;;31.13;13.07;;;0.80;99.90;;;;;;4905909;29;20298;-50
2024/01/11 10:49:25;;;;;;;34.07;14.27;;;0.60;99.90;;;;;;4914401;29;20188;-50
2024/01/11 10:52:02;;;;;;;32.93;12.23;;;0.60;99.90;;;;;;4900553;29;20280;-53
2024/01/11 10:54:28;;;;;;;31.60;12.83;;;0.50;99.90;;;;;;4906367;29;20266;-50
2024/01/11 10:56:56;;;;;;;27.83;11.80;;;0.60;99.90;;;;;;4907551;29;21141;-50
2024/01/11 10:59:25;;;;;;;29.83;12.10;;;0.90;99.90;;;;;;4898053;29;20645;-51
2024/01/11 11:01:56;;;;;;;28.60;11.67;;;0.70;99.90;;;;;;4905894;29;20191;-51
2024/01/11 11:04:23;;;;;;;31.67;12.43;;;0.50;99.90;;;;;;4903814;29;20621;-55
2024/01/11 11:06:58;;;;;;;28.30;11.53;;;0.50;99.90;;;;;;4900955;29;20235;-53
2024/01/11 11:09:25;;;;;;;29.03;11.27;;;0.60;99.90;;;;;;4897759;29;20183;-52
2024/01/11 11:11:55;;;;;;;30.03;11.37;;;0.70;99.90;;;;;;4906308;29;20191;-50
2024/01/11 11:14:22;;;;;;;32.07;10.80;;;0.70;99.90;;;;;;4907003;29;20192;-55
2024/01/11 11:16:48;;;;;;;24.17;10.07;;;0.70;99.90;;;;;;4905689;29;20224;-52
2024/01/11 11:19:14;;;;;;;20.43;8.97;;;;;;;;;;4904019;29;20187;-53
2024/01/11 11:21:44;;;;;;;20.17;9.27;;;;;;;;;;4901667;29;20916;-49
2024/01/11 11:24:10;;;;;;;24.10;8.83;;;;;;;;;;4903222;29;20187;-50
2024/01/11 11:26:37;;;;;;;17.57;8.40;;;;;;;;;;4908903;29;20223;-54
2024/01/11 11:29:06;;;;;;;22.83;9.00;;;;;;;;;;4896843;29;20184;-51
2024/01/11 11:31:39;;;;;;;20.90;9.33;;;;;;;;;;4911800;29;20187;-51
2024/01/11 11:34:05;;;;;;;21.80;8.43;;;;;;;;;;4913437;29;20202;-51
2024/01/11 11:36:33;;;;;;;21.30;9.50;;;;;;;;;;4913008;29;20208;-50
2024/01/11 11:39:01;;;;;;;20.20;9.03;;;0.70;99.90;;;;;;4908579;29;20549;-50
2024/01/11 11:41:27;;;;;;;21.10;9.03;;;2.80;99.90;;;;;;4905645;29;20652;-51
2024/01/11 11:43:52;;;;;;;17.57;7.67;;;3.00;99.90;;;;;;4905954;29;20192;-51
2024/01/11 11:46:19;;;;;;;14.83;6.80;;;3.20;99.90;;;;;;4895383;29;20211;-53
2024/01/11 11:48:51;;;;;;;13.27;6.10;;;3.50;99.90;;;;;;4908214;29;20609;-50
2024/01/11 11:51:18;;;;;;;14.52;7.45;;;3.80;99.90;;;;;;4904465;29;20529;-51
2024/01/11 11:53:45;;;;;;;11.30;5.60;;;4.00;99.90;;;;;;4905496;29;20580;-51
2024/01/11 11:56:12;;;;;;;13.80;6.67;;;4.50;99.90;;;;;;4906461;29;20224;-51
2024/01/11 11:58:41;;;;;;;19.27;7.70;;;5.00;99.90;;;;;;4902376;29;20268;-53
2024/01/11 12:01:06;;;;;;;15.97;7.50;;;5.40;99.90;;;;;;4910749;29;20319;-50
2024/01/11 12:03:37;;;;;;;24.40;7.17;;;6.20;99.90;;;;;;4909243;29;20743;-53
2024/01/11 12:06:04;;;;;;;16.77;6.53;;;7.10;99.90;;;;;;4909113;29;20223;-50
2024/01/11 12:08:30;;;;;;;16.87;7.63;;;7.70;99.90;;;;;;4909761;29;20196;-51
2024/01/11 12:10:56;;;;;;;25.83;7.13;;;8.40;99.90;;;;;;4909372;29;20195;-55
2024/01/11 12:13:22;;;;;;;21.93;6.77;;;8.80;99.90;;;;;;4902595;29;20189;-54
2024/01/11 12:15:48;;;;;;;12.20;6.07;;;8.50;99.90;;;;;;4907278;29;20212;-54
2024/01/11 12:18:13;;;;;;;21.20;6.10;;;8.00;99.90;;;;;;4903843;29;20320;-55
2024/01/11 12:20:39;;;;;;;39.70;8.77;;;8.10;99.90;;;;;;4906709;29;20754;-54
2024/01/11 12:23:05;;;;;;;29.33;9.93;;;7.70;99.90;;;;;;4905268;29;20576;-50
2024/01/11 12:25:31;;;;;;;25.23;9.67;;;7.30;99.90;;;;;;4912769;29;20779;-52
2024/01/11 12:27:57;;;;;;;33.67;8.73;;;7.20;99.90;;;;;;4905877;29;20720;-51
2024/01/11 12:30:24;;;;;;;27.80;9.13;;;7.30;99.90;;;;;;4908401;29;20192;-57
2024/01/11 12:33:01;;;;;;;25.87;9.00;;;7.30;99.90;;;;;;4911552;29;20231;-50
2024/01/11 12:35:27;;;;;;;13.20;6.33;;;7.20;99.90;;;;;;4896490;29;20237;-53
2024/01/11 12:38:00;;;;;;;10.50;5.17;;;6.90;99.90;;;;;;4912854;29;20750;-50
2024/01/11 12:40:27;;;;;;;23.77;5.47;;;6.90;99.90;;;;;;4904697;29;20184;-50
2024/01/11 12:42:53;;;;;;;10.33;4.53;;;6.70;99.90;;;;;;4904927;29;20184;-50
2024/01/11 12:45:19;;;;;;;8.83;4.50;;;6.60;99.90;;;;;;4892911;29;20185;-53
2024/01/11 12:47:45;;;;;;;9.63;5.10;;;6.40;99.90;;;;;;4898548;29;20258;-50
2024/01/11 12:50:14;;;;;;;16.57;6.40;;;6.30;99.90;;;;;;4912043;29;20596;-50
2024/01/11 12:52:41;;;;;;;22.60;9.07;;;6.50;99.90;;;;;;4904321;29;20186;-57
2024/01/11 12:55:09;;;;;;;31.07;6.07;;;6.70;99.90;;;;;;4910860;29;20180;-50
2024/01/11 12:57:34;;;;;;;14.60;6.80;;;6.90;99.90;;;;;;4901103;29;20200;-52
2024/01/11 13:00:10;;;;;;;11.40;5.13;;;6.70;99.90;;;;;;4908465;29;20188;-49
2024/01/11 13:02:36;;;;;;;12.33;5.63;;;6.60;99.90;;;;;;4900883;29;20188;-51
2024/01/11 13:05:02;;;;;;;13.20;5.17;;;6.70;99.90;;;;;;4900081;29;20239;-52
2024/01/11 13:07:28;;;;;;;20.57;4.67;;;6.80;99.90;;;;;;4902549;29;20268;-51
2024/01/11 13:09:53;;;;;;;14.30;4.40;;;6.90;99.90;;;;;;4907622;29;20192;-53
2024/01/11 13:12:20;;;;;;;10.93;4.33;;;7.00;99.90;;;;;;4904091;29;20892;-53
2024/01/11 13:14:47;;;;;;;10.80;4.23;;;7.10;99.90;;;;;;4903985;29;20283;-51
2024/01/11 13:17:12;;;;;;;13.23;4.60;;;7.10;99.90;;;;;;4910126;29;20717;-50
2024/01/11 13:19:39;;;;;;;10.47;3.93;;;7.10;99.90;;;;;;4897567;29;20274;-52
2024/01/11 13:22:04;;;;;;;13.23;4.77;;;7.10;99.90;;;;;;4911480;29;20664;-51
2024/01/11 13:24:30;;;;;;;14.80;5.70;;;7.20;99.90;;;;;;4898852;29;20192;-50
2024/01/11 13:26:56;;;;;;;22.77;4.77;;;7.10;99.90;;;;;;4906876;29;20324;-51
2024/01/11 13:29:21;;;;;;;10.10;4.83;;;7.10;99.90;;;;;;4897136;29;20700;-51
2024/01/11 13:31:47;;;;;;;25.80;5.57;;;7.10;99.90;;;;;;4907237;29;20203;-50
2024/01/11 13:34:13;;;;;;;11.40;4.97;;;7.20;99.90;;;;;;4912857;29;20263;-49
2024/01/11 13:36:38;;;;;;;10.77;4.53;;;7.30;99.90;;;;;;4909242;29;20586;-50
2024/01/11 13:39:07;;;;;;;8.17;4.47;;;7.40;99.90;;;;;;4904606;29;20287;-50
2024/01/11 13:41:33;;;;;;;20.40;5.17;;;7.50;99.90;;;;;;4907295;29;20179;-55
2024/01/11 13:43:59;;;;;;;16.10;5.57;;;7.50;99.90;;;;;;4913437;29;20574;-50
2024/01/11 13:46:24;;;;;;;24.83;7.50;;;7.50;99.90;;;;;;4895271;29;20235;-51
2024/01/11 13:48:50;;;;;;;37.73;10.53;;;7.40;99.90;;;;;;4909364;29;20261;-55